Terminal Aerodrome Forecast
Issued by NWS Wilmington, OH

Current Version | Previous Version | Graphics & Text | Print | Product List | Glossary On
Versions: 1 2 3 4 5 6 7 8 9 10 11 12 13 14 15 16 17 18 19 20 21 22
818
FTUS41 KILN 222018 AAB
TAFILN
TAF AMD
KILN 222018Z 2220/2318 19008KT P6SM SCT150 BKN200
     FM230600 26002KT 5SM BR SCT250
      TEMPO 2308/2312 2SM BR
     FM231300 23005KT P6SM SCT250=

USA.gov is the U.S. government's official web portal to all federal, state and local government web resources and services.